Etusivu
METAR-TAF:

METAR-TAF

Lentoasemat :

Williamsport, Pennsylvania, Yhdysvallat

Leveyspiiri: 41-14-30N, Pituuspiiri: 076-55-15W, korkeus merenpinnasta: 161 m

Tämänhetkinen sää

Tämä raportti tehtiin 21 minuuttia sitten, kello 02.29 UTC
tyyntä
Lämpötila 1°C
Kosteus 100%
Ilmanpaine 1015 hPa
Näkyvyys: 4.0 km
Pilvistä 500 ft:n korkeudessa
utua

METAR: KIPT 140229Z 00000KT 2 1/2SM BR OVC005 01/01 A2998 RMK AO2 T00110006

Aika: 21:50 (02:50 UTC)

Sääennuste

Tämä raportti tehtiin 2 tuntia ja 50 minuuttia sitten, kello 00.00 UTC
Ennuste voimassa 14. päivästä klo 00 UTC - 14. päivään klo 24 UTC
Tuuli 3 kn kaakosta
Näkyvyys: 3.2 km
Pilvistä 500 ft:n korkeudessa
utua
From 14. päivästä klo 1500 UTC
Tuuli 5 kn lännestä
Näkyvyys: 6.4 km
Pilvistä 1500 ft:n korkeudessa
utua

TAF: KIPT 140000Z 1400/1424 13003KT 2SM BR OVC005 FM141500 26005KT 4SM BR OVC015

Säähavainnot ja -ennusteet yli 4000 lentoasemalta (METAR- ja TAF-raportit).

Käytössä olevat sääasemat on merkitty karttaan keltaisilla ja punaisilla pisteillä.

Aseta hiiri pisteen päälle nähdäksesi sääaseman nimen.

Klikkaa sitten nähdäksesi säähavainnot ja -ennusteet.

Kartan vaihtaminen: klikkaa mustalla rastilla varustettuja vihreitä pisteitä, niin voit zoomata sisään; viivalla varustettua vihreää pistettä, niin voit zoomata ulos tai vihreitä nuolia, niin pääset viereisille kartoille.


METAR-TAF: